Turtle Lake, Louisiana
Current Conditions -  °F | °C
As of 12:35 PM on Thursday 30 Oct 2014 (Local Time) from KHEZ Reporting Station
Clear Clear  
Wind Chill: 68°   Ceiling: Unl
Heat Index: 68°   Visibility: 10mi
Dew Point: 43°   Wind: 9mph
Humidity: 40%   Direction: 80°E
Pressure: 30.14"   Gusts: NA
Location:  31.6488°N, 91.6098°W
Report Text: KHEZ 301735Z AUTO 08008KT 10SM CLR 20/06 A3014 RMK AO1
Loading
Personal Weather Stations






























Interactive Weather Map
Tropical Storm Tracking
New forecast layout! Learn more

10-Day Weather Forecast

Advertisements
Track Severe Weather on mobile